sensor_id;sensor_type;location;lat;lon;timestamp;P1;durP1;ratioP1;P2;durP2;ratioP2
66741;SDS011;53654;54.152;19.432;2024-02-28T00:01:23;23.40;;;18.00;;
66741;SDS011;53654;54.152;19.432;2024-02-28T00:03:51;20.60;;;16.90;;
66741;SDS011;53654;54.152;19.432;2024-02-28T00:06:19;20.70;;;17.70;;
66741;SDS011;53654;54.152;19.432;2024-02-28T00:08:47;22.70;;;17.60;;
66741;SDS011;53654;54.152;19.432;2024-02-28T00:11:17;21.30;;;17.40;;
66741;SDS011;53654;54.152;19.432;2024-02-28T00:13:45;19.30;;;17.10;;
66741;SDS011;53654;54.152;19.432;2024-02-28T00:16:13;18.90;;;16.80;;
66741;SDS011;53654;54.152;19.432;2024-02-28T00:18:41;17.30;;;15.30;;
66741;SDS011;53654;54.152;19.432;2024-02-28T00:21:09;18.50;;;15.50;;
66741;SDS011;53654;54.152;19.432;2024-02-28T00:23:38;17.80;;;15.80;;
66741;SDS011;53654;54.152;19.432;2024-02-28T00:26:06;17.00;;;14.60;;
66741;SDS011;53654;54.152;19.432;2024-02-28T00:28:34;16.60;;;14.90;;
66741;SDS011;53654;54.152;19.432;2024-02-28T00:31:02;15.60;;;13.90;;
66741;SDS011;53654;54.152;19.432;2024-02-28T00:33:31;16.50;;;14.80;;
66741;SDS011;53654;54.152;19.432;2024-02-28T00:35:59;14.70;;;13.10;;
66741;SDS011;53654;54.152;19.432;2024-02-28T00:38:27;16.10;;;14.50;;
66741;SDS011;53654;54.152;19.432;2024-02-28T00:40:55;17.00;;;13.70;;
66741;SDS011;53654;54.152;19.432;2024-02-28T00:43:23;16.60;;;14.40;;
66741;SDS011;53654;54.152;19.432;2024-02-28T00:45:52;15.70;;;14.10;;
66741;SDS011;53654;54.152;19.432;2024-02-28T00:48:20;14.10;;;12.60;;
66741;SDS011;53654;54.152;19.432;2024-02-28T00:50:48;14.60;;;12.90;;
66741;SDS011;53654;54.152;19.432;2024-02-28T00:53:17;14.50;;;13.10;;
66741;SDS011;53654;54.152;19.432;2024-02-28T00:55:45;14.80;;;13.30;;
66741;SDS011;53654;54.152;19.432;2024-02-28T00:58:14;14.20;;;12.80;;
66741;SDS011;53654;54.152;19.432;2024-02-28T01:00:42;14.10;;;12.60;;
66741;SDS011;53654;54.152;19.432;2024-02-28T01:03:11;14.00;;;12.60;;
66741;SDS011;53654;54.152;19.432;2024-02-28T01:05:42;12.60;;;11.30;;
66741;SDS011;53654;54.152;19.432;2024-02-28T01:08:11;12.30;;;11.10;;
66741;SDS011;53654;54.152;19.432;2024-02-28T01:10:40;12.80;;;11.50;;
66741;SDS011;53654;54.152;19.432;2024-02-28T01:13:09;11.80;;;10.70;;
66741;SDS011;53654;54.152;19.432;2024-02-28T01:15:39;12.40;;;11.20;;
66741;SDS011;53654;54.152;19.432;2024-02-28T01:18:09;11.90;;;10.80;;
66741;SDS011;53654;54.152;19.432;2024-02-28T01:20:38;11.70;;;10.60;;
66741;SDS011;53654;54.152;19.432;2024-02-28T01:23:07;11.70;;;10.50;;
66741;SDS011;53654;54.152;19.432;2024-02-28T01:25:35;11.80;;;10.70;;
66741;SDS011;53654;54.152;19.432;2024-02-28T01:28:03;11.20;;;10.10;;
66741;SDS011;53654;54.152;19.432;2024-02-28T01:30:32;11.40;;;10.30;;
66741;SDS011;53654;54.152;19.432;2024-02-28T01:33:00;11.80;;;10.70;;
66741;SDS011;53654;54.152;19.432;2024-02-28T01:35:28;11.50;;;10.30;;
66741;SDS011;53654;54.152;19.432;2024-02-28T01:37:56;11.70;;;10.60;;
66741;SDS011;53654;54.152;19.432;2024-02-28T01:40:24;11.50;;;10.40;;
66741;SDS011;53654;54.152;19.432;2024-02-28T01:42:52;10.80;;;9.80;;
66741;SDS011;53654;54.152;19.432;2024-02-28T01:45:21;11.60;;;10.50;;
66741;SDS011;53654;54.152;19.432;2024-02-28T01:47:49;11.40;;;10.20;;
66741;SDS011;53654;54.152;19.432;2024-02-28T01:50:18;10.70;;;9.60;;
66741;SDS011;53654;54.152;19.432;2024-02-28T01:52:46;11.40;;;10.30;;
66741;SDS011;53654;54.152;19.432;2024-02-28T01:55:15;11.20;;;10.10;;
66741;SDS011;53654;54.152;19.432;2024-02-28T01:57:43;10.80;;;9.80;;
66741;SDS011;53654;54.152;19.432;2024-02-28T02:00:12;11.30;;;10.10;;
66741;SDS011;53654;54.152;19.432;2024-02-28T02:02:43;11.20;;;10.10;;
66741;SDS011;53654;54.152;19.432;2024-02-28T02:05:11;11.10;;;10.00;;
66741;SDS011;53654;54.152;19.432;2024-02-28T02:07:39;10.70;;;9.70;;
66741;SDS011;53654;54.152;19.432;2024-02-28T02:10:08;10.50;;;9.50;;
66741;SDS011;53654;54.152;19.432;2024-02-28T02:12:40;10.80;;;9.70;;
66741;SDS011;53654;54.152;19.432;2024-02-28T02:15:08;10.20;;;9.30;;
66741;SDS011;53654;54.152;19.432;2024-02-28T02:17:37;10.80;;;9.70;;
66741;SDS011;53654;54.152;19.432;2024-02-28T02:20:05;10.30;;;9.30;;
66741;SDS011;53654;54.152;19.432;2024-02-28T02:25:52;10.20;;;9.20;;
66741;SDS011;53654;54.152;19.432;2024-02-28T02:28:21;9.80;;;8.90;;
66741;SDS011;53654;54.152;19.432;2024-02-28T02:30:49;9.90;;;9.00;;
66741;SDS011;53654;54.152;19.432;2024-02-28T02:33:17;9.30;;;8.40;;
66741;SDS011;53654;54.152;19.432;2024-02-28T02:35:45;9.70;;;8.80;;
66741;SDS011;53654;54.152;19.432;2024-02-28T02:38:14;9.20;;;8.30;;
66741;SDS011;53654;54.152;19.432;2024-02-28T02:40:42;9.70;;;8.80;;
66741;SDS011;53654;54.152;19.432;2024-02-28T02:43:10;9.50;;;8.60;;
66741;SDS011;53654;54.152;19.432;2024-02-28T02:45:38;8.90;;;8.10;;
66741;SDS011;53654;54.152;19.432;2024-02-28T02:48:07;5.70;;;8.00;;
66741;SDS011;53654;54.152;19.432;2024-02-28T02:50:35;8.90;;;8.10;;
66741;SDS011;53654;54.152;19.432;2024-02-28T02:53:04;9.20;;;8.30;;
66741;SDS011;53654;54.152;19.432;2024-02-28T02:55:32;8.50;;;7.70;;
66741;SDS011;53654;54.152;19.432;2024-02-28T02:58:00;8.60;;;7.80;;
66741;SDS011;53654;54.152;19.432;2024-02-28T03:00:30;8.30;;;7.60;;
66741;SDS011;53654;54.152;19.432;2024-02-28T03:02:59;8.10;;;7.40;;
66741;SDS011;53654;54.152;19.432;2024-02-28T03:05:27;7.90;;;7.20;;
66741;SDS011;53654;54.152;19.432;2024-02-28T03:07:55;7.90;;;7.20;;
66741;SDS011;53654;54.152;19.432;2024-02-28T03:10:24;7.60;;;7.00;;
66741;SDS011;53654;54.152;19.432;2024-02-28T03:12:52;8.00;;;7.30;;
66741;SDS011;53654;54.152;19.432;2024-02-28T03:15:20;7.90;;;7.20;;
66741;SDS011;53654;54.152;19.432;2024-02-28T03:17:48;7.60;;;6.90;;
66741;SDS011;53654;54.152;19.432;2024-02-28T03:20:17;7.50;;;6.80;;
66741;SDS011;53654;54.152;19.432;2024-02-28T03:22:45;8.30;;;6.90;;
66741;SDS011;53654;54.152;19.432;2024-02-28T03:25:13;7.50;;;6.80;;
66741;SDS011;53654;54.152;19.432;2024-02-28T03:27:41;7.80;;;7.10;;
66741;SDS011;53654;54.152;19.432;2024-02-28T03:30:11;7.30;;;6.60;;
66741;SDS011;53654;54.152;19.432;2024-02-28T03:32:39;7.20;;;6.50;;
66741;SDS011;53654;54.152;19.432;2024-02-28T03:35:07;7.30;;;6.60;;
66741;SDS011;53654;54.152;19.432;2024-02-28T03:37:36;7.10;;;6.50;;
66741;SDS011;53654;54.152;19.432;2024-02-28T03:40:05;7.10;;;6.40;;
66741;SDS011;53654;54.152;19.432;2024-02-28T03:42:34;7.20;;;6.50;;
66741;SDS011;53654;54.152;19.432;2024-02-28T03:45:03;7.20;;;6.50;;
66741;SDS011;53654;54.152;19.432;2024-02-28T03:47:32;7.60;;;6.90;;
66741;SDS011;53654;54.152;19.432;2024-02-28T03:50:00;7.90;;;7.10;;
66741;SDS011;53654;54.152;19.432;2024-02-28T03:52:31;7.50;;;6.80;;
66741;SDS011;53654;54.152;19.432;2024-02-28T03:54:59;7.90;;;7.20;;
66741;SDS011;53654;54.152;19.432;2024-02-28T03:57:28;7.70;;;7.00;;
66741;SDS011;53654;54.152;19.432;2024-02-28T03:59:56;7.50;;;6.80;;
66741;SDS011;53654;54.152;19.432;2024-02-28T04:02:24;7.10;;;6.50;;
66741;SDS011;53654;54.152;19.432;2024-02-28T04:04:53;7.30;;;6.70;;
66741;SDS011;53654;54.152;19.432;2024-02-28T04:07:21;7.50;;;6.80;;
66741;SDS011;53654;54.152;19.432;2024-02-28T04:09:49;7.30;;;6.60;;
66741;SDS011;53654;54.152;19.432;2024-02-28T04:12:17;7.40;;;6.70;;
66741;SDS011;53654;54.152;19.432;2024-02-28T04:14:46;7.70;;;7.00;;
66741;SDS011;53654;54.152;19.432;2024-02-28T04:17:14;8.10;;;7.30;;
66741;SDS011;53654;54.152;19.432;2024-02-28T04:19:42;7.60;;;6.90;;
66741;SDS011;53654;54.152;19.432;2024-02-28T04:22:10;8.00;;;7.20;;
66741;SDS011;53654;54.152;19.432;2024-02-28T04:24:38;7.60;;;6.90;;
66741;SDS011;53654;54.152;19.432;2024-02-28T04:27:07;7.70;;;7.00;;
66741;SDS011;53654;54.152;19.432;2024-02-28T04:29:38;7.60;;;6.90;;
66741;SDS011;53654;54.152;19.432;2024-02-28T04:32:06;8.40;;;7.60;;
66741;SDS011;53654;54.152;19.432;2024-02-28T04:34:35;8.40;;;7.70;;
66741;SDS011;53654;54.152;19.432;2024-02-28T04:37:04;7.70;;;7.00;;
66741;SDS011;53654;54.152;19.432;2024-02-28T04:39:32;8.60;;;7.70;;
66741;SDS011;53654;54.152;19.432;2024-02-28T04:42:00;8.60;;;7.80;;
66741;SDS011;53654;54.152;19.432;2024-02-28T04:44:28;8.50;;;7.60;;
66741;SDS011;53654;54.152;19.432;2024-02-28T04:46:57;8.80;;;8.00;;
66741;SDS011;53654;54.152;19.432;2024-02-28T04:49:25;8.60;;;7.70;;
66741;SDS011;53654;54.152;19.432;2024-02-28T04:51:54;8.80;;;7.90;;
66741;SDS011;53654;54.152;19.432;2024-02-28T04:54:22;8.90;;;8.00;;
66741;SDS011;53654;54.152;19.432;2024-02-28T04:56:50;8.90;;;8.10;;
66741;SDS011;53654;54.152;19.432;2024-02-28T04:59:19;8.40;;;7.60;;
66741;SDS011;53654;54.152;19.432;2024-02-28T05:01:47;8.50;;;7.70;;
66741;SDS011;53654;54.152;19.432;2024-02-28T05:04:16;9.10;;;8.30;;
66741;SDS011;53654;54.152;19.432;2024-02-28T05:06:44;9.10;;;8.30;;
66741;SDS011;53654;54.152;19.432;2024-02-28T05:09:12;9.90;;;9.00;;
66741;SDS011;53654;54.152;19.432;2024-02-28T05:11:40;9.40;;;8.50;;
66741;SDS011;53654;54.152;19.432;2024-02-28T05:14:09;8.90;;;8.10;;
66741;SDS011;53654;54.152;19.432;2024-02-28T05:16:38;8.70;;;7.90;;
66741;SDS011;53654;54.152;19.432;2024-02-28T05:19:06;8.40;;;7.70;;
66741;SDS011;53654;54.152;19.432;2024-02-28T05:21:41;9.00;;;8.20;;
66741;SDS011;53654;54.152;19.432;2024-02-28T05:24:10;9.50;;;8.60;;
66741;SDS011;53654;54.152;19.432;2024-02-28T05:26:38;9.40;;;8.50;;
66741;SDS011;53654;54.152;19.432;2024-02-28T05:29:07;9.20;;;8.30;;
66741;SDS011;53654;54.152;19.432;2024-02-28T05:31:35;8.90;;;8.00;;
66741;SDS011;53654;54.152;19.432;2024-02-28T05:34:06;8.10;;;7.30;;
66741;SDS011;53654;54.152;19.432;2024-02-28T05:36:34;10.40;;;9.40;;
66741;SDS011;53654;54.152;19.432;2024-02-28T05:39:03;12.30;;;11.10;;
66741;SDS011;53654;54.152;19.432;2024-02-28T05:41:33;12.40;;;11.30;;
66741;SDS011;53654;54.152;19.432;2024-02-28T05:44:02;12.50;;;11.30;;
66741;SDS011;53654;54.152;19.432;2024-02-28T05:46:30;13.80;;;12.40;;
66741;SDS011;53654;54.152;19.432;2024-02-28T05:48:58;13.90;;;12.60;;
66741;SDS011;53654;54.152;19.432;2024-02-28T05:51:27;14.30;;;13.00;;
66741;SDS011;53654;54.152;19.432;2024-02-28T05:53:55;14.60;;;13.20;;
66741;SDS011;53654;54.152;19.432;2024-02-28T05:56:23;14.30;;;12.90;;
66741;SDS011;53654;54.152;19.432;2024-02-28T05:58:51;15.90;;;14.30;;
66741;SDS011;53654;54.152;19.432;2024-02-28T06:01:20;14.80;;;13.40;;
66741;SDS011;53654;54.152;19.432;2024-02-28T06:03:49;15.10;;;13.60;;
66741;SDS011;53654;54.152;19.432;2024-02-28T06:06:17;15.70;;;14.20;;
66741;SDS011;53654;54.152;19.432;2024-02-28T06:08:46;18.90;;;16.60;;
66741;SDS011;53654;54.152;19.432;2024-02-28T06:11:14;19.60;;;17.60;;
66741;SDS011;53654;54.152;19.432;2024-02-28T06:13:42;21.10;;;18.80;;
66741;SDS011;53654;54.152;19.432;2024-02-28T06:16:14;19.40;;;17.20;;
66741;SDS011;53654;54.152;19.432;2024-02-28T06:18:43;19.20;;;16.60;;
66741;SDS011;53654;54.152;19.432;2024-02-28T06:21:13;17.00;;;14.80;;
66741;SDS011;53654;54.152;19.432;2024-02-28T06:23:42;15.40;;;12.50;;
66741;SDS011;53654;54.152;19.432;2024-02-28T06:26:10;13.00;;;11.60;;
66741;SDS011;53654;54.152;19.432;2024-02-28T06:28:45;16.90;;;13.50;;
66741;SDS011;53654;54.152;19.432;2024-02-28T06:31:16;16.80;;;14.70;;
66741;SDS011;53654;54.152;19.432;2024-02-28T06:33:44;15.20;;;13.00;;
66741;SDS011;53654;54.152;19.432;2024-02-28T06:36:13;15.40;;;12.10;;
66741;SDS011;53654;54.152;19.432;2024-02-28T06:38:42;15.00;;;11.70;;
66741;SDS011;53654;54.152;19.432;2024-02-28T06:41:10;12.00;;;10.60;;
66741;SDS011;53654;54.152;19.432;2024-02-28T06:43:39;12.80;;;11.10;;
66741;SDS011;53654;54.152;19.432;2024-02-28T06:46:07;13.80;;;11.60;;
66741;SDS011;53654;54.152;19.432;2024-02-28T06:48:35;15.30;;;13.10;;
66741;SDS011;53654;54.152;19.432;2024-02-28T06:51:04;15.90;;;12.80;;
66741;SDS011;53654;54.152;19.432;2024-02-28T06:53:32;13.80;;;11.80;;
66741;SDS011;53654;54.152;19.432;2024-02-28T06:56:01;16.00;;;12.70;;
66741;SDS011;53654;54.152;19.432;2024-02-28T06:58:30;15.30;;;11.30;;
66741;SDS011;53654;54.152;19.432;2024-02-28T07:00:58;12.90;;;10.50;;
66741;SDS011;53654;54.152;19.432;2024-02-28T07:03:26;10.90;;;9.40;;
66741;SDS011;53654;54.152;19.432;2024-02-28T07:05:55;10.40;;;8.80;;
66741;SDS011;53654;54.152;19.432;2024-02-28T07:08:23;10.00;;;8.60;;
66741;SDS011;53654;54.152;19.432;2024-02-28T07:10:51;9.70;;;8.70;;
66741;SDS011;53654;54.152;19.432;2024-02-28T07:13:21;9.10;;;8.20;;
66741;SDS011;53654;54.152;19.432;2024-02-28T07:15:50;8.70;;;7.80;;
66741;SDS011;53654;54.152;19.432;2024-02-28T07:18:18;9.00;;;7.70;;
66741;SDS011;53654;54.152;19.432;2024-02-28T07:20:46;7.20;;;6.50;;
66741;SDS011;53654;54.152;19.432;2024-02-28T07:23:15;6.90;;;6.20;;
66741;SDS011;53654;54.152;19.432;2024-02-28T07:25:43;7.80;;;7.00;;
66741;SDS011;53654;54.152;19.432;2024-02-28T07:28:11;8.80;;;7.30;;
66741;SDS011;53654;54.152;19.432;2024-02-28T07:30:40;7.60;;;6.60;;
66741;SDS011;53654;54.152;19.432;2024-02-28T07:33:08;8.40;;;7.00;;
66741;SDS011;53654;54.152;19.432;2024-02-28T07:35:43;8.50;;;7.60;;
66741;SDS011;53654;54.152;19.432;2024-02-28T07:38:14;8.40;;;7.20;;
66741;SDS011;53654;54.152;19.432;2024-02-28T07:40:45;7.20;;;6.50;;
66741;SDS011;53654;54.152;19.432;2024-02-28T07:43:15;8.70;;;7.40;;
66741;SDS011;53654;54.152;19.432;2024-02-28T07:45:44;8.10;;;7.30;;
66741;SDS011;53654;54.152;19.432;2024-02-28T07:48:12;8.10;;;7.30;;
66741;SDS011;53654;54.152;19.432;2024-02-28T07:50:40;8.90;;;8.00;;
66741;SDS011;53654;54.152;19.432;2024-02-28T07:53:09;9.90;;;8.90;;
66741;SDS011;53654;54.152;19.432;2024-02-28T07:55:38;9.80;;;8.70;;
66741;SDS011;53654;54.152;19.432;2024-02-28T07:58:09;9.80;;;8.50;;
66741;SDS011;53654;54.152;19.432;2024-02-28T08:00:37;11.00;;;8.20;;
66741;SDS011;53654;54.152;19.432;2024-02-28T08:03:06;9.60;;;8.60;;
66741;SDS011;53654;54.152;19.432;2024-02-28T08:05:35;9.60;;;8.60;;
66741;SDS011;53654;54.152;19.432;2024-02-28T08:08:07;9.70;;;8.70;;
66741;SDS011;53654;54.152;19.432;2024-02-28T08:10:36;9.10;;;8.20;;
66741;SDS011;53654;54.152;19.432;2024-02-28T08:13:05;10.70;;;8.40;;
66741;SDS011;53654;54.152;19.432;2024-02-28T08:15:33;10.90;;;8.90;;
66741;SDS011;53654;54.152;19.432;2024-02-28T08:18:02;11.00;;;8.50;;
66741;SDS011;53654;54.152;19.432;2024-02-28T08:20:30;10.70;;;8.40;;
66741;SDS011;53654;54.152;19.432;2024-02-28T08:22:58;10.00;;;8.10;;
66741;SDS011;53654;54.152;19.432;2024-02-28T08:25:27;11.10;;;8.90;;
66741;SDS011;53654;54.152;19.432;2024-02-28T08:27:56;11.50;;;9.50;;
66741;SDS011;53654;54.152;19.432;2024-02-28T08:30:24;10.20;;;8.40;;
66741;SDS011;53654;54.152;19.432;2024-02-28T08:32:53;9.80;;;8.30;;
66741;SDS011;53654;54.152;19.432;2024-02-28T08:35:22;9.40;;;8.40;;
66741;SDS011;53654;54.152;19.432;2024-02-28T08:37:51;8.70;;;7.30;;
66741;SDS011;53654;54.152;19.432;2024-02-28T08:40:20;9.50;;;7.30;;
66741;SDS011;53654;54.152;19.432;2024-02-28T08:42:49;9.50;;;7.10;;
66741;SDS011;53654;54.152;19.432;2024-02-28T08:45:22;9.60;;;7.80;;
66741;SDS011;53654;54.152;19.432;2024-02-28T08:47:51;12.10;;;8.50;;
66741;SDS011;53654;54.152;19.432;2024-02-28T08:50:19;8.90;;;7.90;;
66741;SDS011;53654;54.152;19.432;2024-02-28T08:52:48;9.00;;;7.40;;
66741;SDS011;53654;54.152;19.432;2024-02-28T08:55:16;8.70;;;7.60;;
66741;SDS011;53654;54.152;19.432;2024-02-28T08:57:46;8.60;;;7.50;;
66741;SDS011;53654;54.152;19.432;2024-02-28T09:00:15;9.10;;;8.20;;
66741;SDS011;53654;54.152;19.432;2024-02-28T09:02:43;7.80;;;6.90;;
66741;SDS011;53654;54.152;19.432;2024-02-28T09:05:12;8.20;;;7.10;;
66741;SDS011;53654;54.152;19.432;2024-02-28T09:07:40;7.10;;;6.40;;
66741;SDS011;53654;54.152;19.432;2024-02-28T09:10:09;7.10;;;6.20;;
66741;SDS011;53654;54.152;19.432;2024-02-28T09:12:39;7.00;;;6.30;;
66741;SDS011;53654;54.152;19.432;2024-02-28T09:15:07;6.30;;;5.70;;
66741;SDS011;53654;54.152;19.432;2024-02-28T09:17:36;6.80;;;6.10;;
66741;SDS011;53654;54.152;19.432;2024-02-28T09:20:04;9.00;;;6.70;;
66741;SDS011;53654;54.152;19.432;2024-02-28T09:22:34;7.40;;;6.70;;
66741;SDS011;53654;54.152;19.432;2024-02-28T09:25:03;7.60;;;6.90;;
66741;SDS011;53654;54.152;19.432;2024-02-28T09:27:32;7.50;;;6.80;;
66741;SDS011;53654;54.152;19.432;2024-02-28T09:30:01;8.60;;;7.20;;
66741;SDS011;53654;54.152;19.432;2024-02-28T09:32:30;8.70;;;7.70;;
66741;SDS011;53654;54.152;19.432;2024-02-28T09:34:58;8.90;;;7.20;;
66741;SDS011;53654;54.152;19.432;2024-02-28T09:37:27;8.50;;;7.70;;
66741;SDS011;53654;54.152;19.432;2024-02-28T09:39:56;9.40;;;7.20;;
66741;SDS011;53654;54.152;19.432;2024-02-28T09:42:24;8.90;;;7.10;;
66741;SDS011;53654;54.152;19.432;2024-02-28T09:44:52;8.20;;;7.40;;
66741;SDS011;53654;54.152;19.432;2024-02-28T09:47:22;9.70;;;6.80;;
66741;SDS011;53654;54.152;19.432;2024-02-28T09:49:50;9.00;;;6.50;;
66741;SDS011;53654;54.152;19.432;2024-02-28T09:52:21;8.10;;;6.70;;
66741;SDS011;53654;54.152;19.432;2024-02-28T09:54:50;9.10;;;6.90;;
66741;SDS011;53654;54.152;19.432;2024-02-28T09:57:18;7.30;;;6.50;;
66741;SDS011;53654;54.152;19.432;2024-02-28T09:59:46;7.40;;;6.40;;
66741;SDS011;53654;54.152;19.432;2024-02-28T10:02:22;10.10;;;6.60;;
66741;SDS011;53654;54.152;19.432;2024-02-28T10:04:52;8.40;;;6.70;;
66741;SDS011;53654;54.152;19.432;2024-02-28T10:07:21;7.80;;;5.80;;
66741;SDS011;53654;54.152;19.432;2024-02-28T10:09:50;6.60;;;5.70;;
66741;SDS011;53654;54.152;19.432;2024-02-28T10:12:19;8.10;;;6.50;;
66741;SDS011;53654;54.152;19.432;2024-02-28T10:14:51;8.70;;;6.40;;
66741;SDS011;53654;54.152;19.432;2024-02-28T10:17:19;8.20;;;6.30;;
66741;SDS011;53654;54.152;19.432;2024-02-28T10:19:47;7.50;;;6.40;;
66741;SDS011;53654;54.152;19.432;2024-02-28T10:22:16;9.00;;;6.10;;
66741;SDS011;53654;54.152;19.432;2024-02-28T10:24:44;6.30;;;5.70;;
66741;SDS011;53654;54.152;19.432;2024-02-28T10:27:15;6.80;;;5.90;;
66741;SDS011;53654;54.152;19.432;2024-02-28T10:29:44;7.20;;;5.90;;
66741;SDS011;53654;54.152;19.432;2024-02-28T10:32:14;6.60;;;6.00;;
66741;SDS011;53654;54.152;19.432;2024-02-28T10:34:43;6.70;;;6.00;;
66741;SDS011;53654;54.152;19.432;2024-02-28T10:37:12;6.90;;;6.20;;
66741;SDS011;53654;54.152;19.432;2024-02-28T10:39:41;7.40;;;6.30;;
66741;SDS011;53654;54.152;19.432;2024-02-28T10:42:11;6.50;;;5.90;;
66741;SDS011;53654;54.152;19.432;2024-02-28T10:44:40;6.10;;;5.30;;
66741;SDS011;53654;54.152;19.432;2024-02-28T10:47:10;5.90;;;5.30;;
66741;SDS011;53654;54.152;19.432;2024-02-28T10:49:42;6.40;;;4.50;;
66741;SDS011;53654;54.152;19.432;2024-02-28T10:52:11;5.40;;;4.90;;
66741;SDS011;53654;54.152;19.432;2024-02-28T10:54:43;5.20;;;4.70;;
66741;SDS011;53654;54.152;19.432;2024-02-28T10:57:18;5.20;;;4.60;;
66741;SDS011;53654;54.152;19.432;2024-02-28T10:59:47;4.70;;;4.30;;
66741;SDS011;53654;54.152;19.432;2024-02-28T11:02:16;4.60;;;4.20;;
66741;SDS011;53654;54.152;19.432;2024-02-28T11:04:44;4.20;;;3.80;;
66741;SDS011;53654;54.152;19.432;2024-02-28T11:07:18;4.30;;;3.90;;
66741;SDS011;53654;54.152;19.432;2024-02-28T11:09:53;4.70;;;4.30;;
66741;SDS011;53654;54.152;19.432;2024-02-28T11:12:26;5.00;;;4.40;;
66741;SDS011;53654;54.152;19.432;2024-02-28T11:14:59;4.40;;;4.00;;
66741;SDS011;53654;54.152;19.432;2024-02-28T11:17:29;4.10;;;3.80;;
66741;SDS011;53654;54.152;19.432;2024-02-28T11:19:59;4.20;;;3.90;;
66741;SDS011;53654;54.152;19.432;2024-02-28T11:22:27;4.30;;;3.90;;
66741;SDS011;53654;54.152;19.432;2024-02-28T11:24:57;4.40;;;4.00;;
66741;SDS011;53654;54.152;19.432;2024-02-28T11:27:25;4.80;;;4.40;;
66741;SDS011;53654;54.152;19.432;2024-02-28T11:29:53;5.10;;;4.60;;
66741;SDS011;53654;54.152;19.432;2024-02-28T11:32:24;5.70;;;5.20;;
66741;SDS011;53654;54.152;19.432;2024-02-28T11:34:52;6.40;;;5.50;;
66741;SDS011;53654;54.152;19.432;2024-02-28T11:37:21;6.70;;;5.90;;
66741;SDS011;53654;54.152;19.432;2024-02-28T11:39:49;7.00;;;5.70;;
66741;SDS011;53654;54.152;19.432;2024-02-28T11:42:19;5.80;;;5.20;;
66741;SDS011;53654;54.152;19.432;2024-02-28T11:44:53;6.40;;;5.80;;
66741;SDS011;53654;54.152;19.432;2024-02-28T11:47:28;5.80;;;5.30;;
66741;SDS011;53654;54.152;19.432;2024-02-28T11:49:58;5.60;;;5.10;;
66741;SDS011;53654;54.152;19.432;2024-02-28T11:52:33;4.90;;;4.50;;
66741;SDS011;53654;54.152;19.432;2024-02-28T11:55:01;4.90;;;4.50;;
66741;SDS011;53654;54.152;19.432;2024-02-28T11:57:30;5.90;;;5.40;;
66741;SDS011;53654;54.152;19.432;2024-02-28T12:00:06;5.00;;;4.60;;
66741;SDS011;53654;54.152;19.432;2024-02-28T12:02:37;5.20;;;4.80;;
66741;SDS011;53654;54.152;19.432;2024-02-28T12:05:05;4.90;;;4.50;;
66741;SDS011;53654;54.152;19.432;2024-02-28T12:07:34;4.70;;;4.30;;
66741;SDS011;53654;54.152;19.432;2024-02-28T12:10:03;5.10;;;4.70;;
66741;SDS011;53654;54.152;19.432;2024-02-28T12:12:32;5.20;;;4.80;;
66741;SDS011;53654;54.152;19.432;2024-02-28T12:15:00;4.80;;;4.40;;
66741;SDS011;53654;54.152;19.432;2024-02-28T12:17:31;4.80;;;4.40;;
66741;SDS011;53654;54.152;19.432;2024-02-28T12:20:00;5.00;;;4.60;;
66741;SDS011;53654;54.152;19.432;2024-02-28T12:22:29;5.90;;;5.40;;
66741;SDS011;53654;54.152;19.432;2024-02-28T12:24:57;5.40;;;5.00;;
66741;SDS011;53654;54.152;19.432;2024-02-28T12:27:27;4.80;;;4.40;;
66741;SDS011;53654;54.152;19.432;2024-02-28T12:29:56;4.70;;;4.30;;
66741;SDS011;53654;54.152;19.432;2024-02-28T12:32:24;5.10;;;6.30;;
66741;SDS011;53654;54.152;19.432;2024-02-28T12:34:53;4.60;;;4.20;;
66741;SDS011;53654;54.152;19.432;2024-02-28T12:37:21;6.40;;;5.80;;
66741;SDS011;53654;54.152;19.432;2024-02-28T12:39:50;7.40;;;6.70;;
66741;SDS011;53654;54.152;19.432;2024-02-28T12:42:19;8.10;;;7.40;;
66741;SDS011;53654;54.152;19.432;2024-02-28T12:44:47;8.50;;;7.70;;
66741;SDS011;53654;54.152;19.432;2024-02-28T12:47:16;7.10;;;6.50;;
66741;SDS011;53654;54.152;19.432;2024-02-28T12:49:44;6.70;;;6.10;;
66741;SDS011;53654;54.152;19.432;2024-02-28T12:52:12;7.40;;;6.80;;
66741;SDS011;53654;54.152;19.432;2024-02-28T12:54:40;8.50;;;7.70;;
66741;SDS011;53654;54.152;19.432;2024-02-28T12:57:08;8.80;;;8.00;;
66741;SDS011;53654;54.152;19.432;2024-02-28T12:59:37;8.90;;;8.10;;
66741;SDS011;53654;54.152;19.432;2024-02-28T13:02:06;7.90;;;7.20;;
66741;SDS011;53654;54.152;19.432;2024-02-28T13:04:35;8.60;;;7.80;;
66741;SDS011;53654;54.152;19.432;2024-02-28T13:07:03;7.70;;;7.00;;
66741;SDS011;53654;54.152;19.432;2024-02-28T13:09:32;6.00;;;5.50;;
66741;SDS011;53654;54.152;19.432;2024-02-28T13:12:00;5.70;;;5.20;;
66741;SDS011;53654;54.152;19.432;2024-02-28T13:14:29;5.90;;;5.40;;
66741;SDS011;53654;54.152;19.432;2024-02-28T13:16:58;5.60;;;5.10;;
66741;SDS011;53654;54.152;19.432;2024-02-28T13:19:30;5.50;;;4.90;;
66741;SDS011;53654;54.152;19.432;2024-02-28T13:21:58;5.50;;;5.00;;
66741;SDS011;53654;54.152;19.432;2024-02-28T13:24:27;5.90;;;5.40;;
66741;SDS011;53654;54.152;19.432;2024-02-28T13:26:55;6.20;;;5.70;;
66741;SDS011;53654;54.152;19.432;2024-02-28T13:29:23;6.50;;;6.00;;
66741;SDS011;53654;54.152;19.432;2024-02-28T13:31:51;5.90;;;5.40;;
66741;SDS011;53654;54.152;19.432;2024-02-28T13:34:20;6.80;;;6.20;;
66741;SDS011;53654;54.152;19.432;2024-02-28T13:36:48;6.20;;;5.70;;
66741;SDS011;53654;54.152;19.432;2024-02-28T13:39:17;6.90;;;6.40;;
66741;SDS011;53654;54.152;19.432;2024-02-28T13:41:45;9.90;;;9.00;;
66741;SDS011;53654;54.152;19.432;2024-02-28T13:44:13;8.70;;;8.00;;
66741;SDS011;53654;54.152;19.432;2024-02-28T13:46:41;6.50;;;6.00;;
66741;SDS011;53654;54.152;19.432;2024-02-28T13:49:10;6.30;;;5.80;;
66741;SDS011;53654;54.152;19.432;2024-02-28T13:51:38;7.10;;;6.50;;
66741;SDS011;53654;54.152;19.432;2024-02-28T13:54:09;7.10;;;6.60;;
66741;SDS011;53654;54.152;19.432;2024-02-28T13:56:37;7.90;;;7.30;;
66741;SDS011;53654;54.152;19.432;2024-02-28T13:59:05;8.70;;;8.00;;
66741;SDS011;53654;54.152;19.432;2024-02-28T14:01:34;8.40;;;7.70;;
66741;SDS011;53654;54.152;19.432;2024-02-28T14:04:02;8.60;;;7.90;;
66741;SDS011;53654;54.152;19.432;2024-02-28T14:06:31;7.80;;;7.20;;
66741;SDS011;53654;54.152;19.432;2024-02-28T14:08:59;7.10;;;6.60;;
66741;SDS011;53654;54.152;19.432;2024-02-28T14:11:28;7.00;;;6.50;;
66741;SDS011;53654;54.152;19.432;2024-02-28T14:13:56;5.60;;;5.20;;
66741;SDS011;53654;54.152;19.432;2024-02-28T14:16:24;4.70;;;4.40;;
66741;SDS011;53654;54.152;19.432;2024-02-28T14:18:53;4.90;;;4.60;;
66741;SDS011;53654;54.152;19.432;2024-02-28T14:21:21;4.30;;;4.00;;
66741;SDS011;53654;54.152;19.432;2024-02-28T14:23:50;6.20;;;5.70;;
66741;SDS011;53654;54.152;19.432;2024-02-28T14:26:19;6.40;;;5.90;;
66741;SDS011;53654;54.152;19.432;2024-02-28T14:28:47;7.90;;;7.20;;
66741;SDS011;53654;54.152;19.432;2024-02-28T14:31:16;6.40;;;5.80;;
66741;SDS011;53654;54.152;19.432;2024-02-28T14:33:44;5.10;;;4.70;;
66741;SDS011;53654;54.152;19.432;2024-02-28T14:36:13;5.50;;;4.80;;
66741;SDS011;53654;54.152;19.432;2024-02-28T14:38:42;8.30;;;6.70;;
66741;SDS011;53654;54.152;19.432;2024-02-28T14:41:11;9.20;;;6.90;;